Time,TemperatureF,DewpointF,PressureIn,WindDirection,WindDirectionDegrees,WindSpeedMPH,WindSpeedGustMPH,Humidity,HourlyPrecipIn,Conditions,Clouds,dailyrainin,SolarRadiationWatts/m^2,SoftwareType,DateUTC
2013-06-25 00:00:00,67.2,65.4,30.17,NW,320,0.0,0.0,94,0.00,,,0.02,0,Wunderground v.1.15,2013-06-25 04:00:00,
2013-06-25 00:01:00,67.2,65.4,30.17,NW,320,0.0,0.0,94,0.00,,,0.00,0,Wunderground v.1.15,2013-06-25 04:01:00,
2013-06-25 00:02:00,67.2,65.4,30.17,NW,320,0.0,0.0,94,0.00,,,0.00,0,Wunderground v.1.15,2013-06-25 04:02:00,
2013-06-25 00:08:00,67.0,65.2,30.17,NW,320,0.0,0.0,94,0.00,,,0.00,0,Wunderground v.1.15,2013-06-25 04:08:00,
2013-06-25 00:09:00,67.0,65.2,30.17,NW,320,0.0,0.0,94,0.00,,,0.00,0,Wunderground v.1.15,2013-06-25 04:09:00,
2013-06-25 00:12:00,67.0,65.5,30.17,NW,320,0.0,0.0,95,0.00,,,0.00,0,Wunderground v.1.15,2013-06-25 04:12:00,
2013-06-25 00:18:00,66.9,65.4,30.17,NW,320,0.0,0.0,95,0.00,,,0.00,0,Wunderground v.1.15,2013-06-25 04:18:00,
2013-06-25 00:23:00,66.7,65.2,30.17,NW,320,0.0,0.0,95,0.00,,,0.00,0,Wunderground v.1.15,2013-06-25 04:23:00,
2013-06-25 00:29:00,66.7,65.2,30.17,NW,320,0.0,0.0,95,0.00,,,0.00,0,Wunderground v.1.15,2013-06-25 04:29:00,
2013-06-25 00:35:00,66.6,65.1,30.17,NW,320,0.0,0.0,95,0.00,,,0.00,0,Wunderground v.1.15,2013-06-25 04:35:00,
2013-06-25 00:41:00,66.5,65.0,30.17,NW,320,0.0,0.0,95,0.00,,,0.00,0,Wunderground v.1.15,2013-06-25 04:41:00,
2013-06-25 00:47:00,66.4,64.9,30.17,NW,320,0.0,0.0,95,0.00,,,0.00,0,Wunderground v.1.15,2013-06-25 04:47:00,
2013-06-25 00:53:00,66.3,64.8,30.17,NW,320,0.0,0.0,95,0.00,,,0.00,0,Wunderground v.1.15,2013-06-25 04:53:00,
2013-06-25 00:59:00,66.3,65.1,30.16,NW,320,0.0,0.0,96,0.00,,,0.00,0,Wunderground v.1.15,2013-06-25 04:59:00,
2013-06-25 01:04:00,66.3,65.1,30.16,NW,320,0.0,0.0,96,0.00,,,0.00,0,Wunderground v.1.15,2013-06-25 05:04:00,
2013-06-25 01:10:00,66.3,65.1,30.16,NW,320,0.0,0.0,96,0.00,,,0.00,0,Wunderground v.1.15,2013-06-25 05:10:00,
2013-06-25 01:16:00,66.2,65.0,30.16,NW,320,0.0,0.0,96,0.00,,,0.00,0,Wunderground v.1.15,2013-06-25 05:16:00,
2013-06-25 01:22:00,66.1,64.9,30.16,NW,320,0.0,0.0,96,0.00,,,0.00,0,Wunderground v.1.15,2013-06-25 05:22:00,
2013-06-25 01:28:00,66.0,64.8,30.16,NNW,346,0.0,0.0,96,0.00,,,0.00,0,Wunderground v.1.15,2013-06-25 05:28:00,
2013-06-25 01:34:00,65.9,64.7,30.16,NNW,346,0.0,0.0,96,0.00,,,0.00,0,Wunderground v.1.15,2013-06-25 05:34:00,
2013-06-25 01:40:00,65.7,64.5,30.16,North,355,0.0,0.0,96,0.00,,,0.00,0,Wunderground v.1.15,2013-06-25 05:40:00,
2013-06-25 01:46:00,65.5,64.3,30.15,North,355,0.0,0.0,96,0.00,,,0.00,0,Wunderground v.1.15,2013-06-25 05:46:00,
2013-06-25 01:52:00,65.3,64.1,30.15,North,355,0.0,0.0,96,0.00,,,0.00,0,Wunderground v.1.15,2013-06-25 05:52:00,
2013-06-25 01:58:00,65.1,63.9,30.15,North,355,0.0,0.0,96,0.00,,,0.00,0,Wunderground v.1.15,2013-06-25 05:58:00,
2013-06-25 02:03:00,65.0,63.8,30.15,North,355,0.0,0.0,96,0.00,,,0.00,0,Wunderground v.1.15,2013-06-25 06:03:00,
2013-06-25 02:08:00,64.9,63.7,30.15,North,355,0.0,0.0,96,0.00,,,0.00,0,Wunderground v.1.15,2013-06-25 06:08:00,
2013-06-25 02:13:00,64.8,63.6,30.15,North,355,0.0,0.0,96,0.00,,,0.00,0,Wunderground v.1.15,2013-06-25 06:13:00,
2013-06-25 02:18:00,64.7,63.5,30.15,North,355,0.0,0.0,96,0.00,,,0.00,0,Wunderground v.1.15,2013-06-25 06:18:00,
2013-06-25 02:23:00,64.7,63.5,30.15,North,355,0.0,0.0,96,0.00,,,0.00,0,Wunderground v.1.15,2013-06-25 06:23:00,
2013-06-25 02:28:00,64.7,63.5,30.15,North,355,0.0,0.0,96,0.00,,,0.00,0,Wunderground v.1.15,2013-06-25 06:28:00,
2013-06-25 02:33:00,64.8,63.6,30.14,North,355,0.0,0.0,96,0.00,,,0.00,0,Wunderground v.1.15,2013-06-25 06:33:00,
2013-06-25 02:38:00,64.9,64.0,30.14,North,355,0.0,0.0,97,0.00,,,0.00,0,Wunderground v.1.15,2013-06-25 06:38:00,
2013-06-25 02:43:00,65.0,64.1,30.14,North,355,0.0,0.0,97,0.00,,,0.00,0,Wunderground v.1.15,2013-06-25 06:43:00,
2013-06-25 02:48:00,65.1,64.2,30.14,North,355,0.0,0.0,97,0.00,,,0.00,0,Wunderground v.1.15,2013-06-25 06:48:00,
2013-06-25 02:53:00,65.2,64.3,30.14,North,355,0.0,0.0,97,0.00,,,0.00,0,Wunderground v.1.15,2013-06-25 06:53:00,
2013-06-25 02:58:00,65.3,64.4,30.14,North,355,0.0,0.0,97,0.00,,,0.00,0,Wunderground v.1.15,2013-06-25 06:58:00,
2013-06-25 03:03:00,65.3,64.4,30.14,North,355,0.0,0.0,97,0.00,,,0.00,0,Wunderground v.1.15,2013-06-25 07:03:00,
2013-06-25 03:08:00,65.4,64.5,30.14,ESE,111,2.0,2.0,97,0.00,,,0.00,0,Wunderground v.1.15,2013-06-25 07:08:00,
2013-06-25 03:13:00,65.5,64.6,30.13,ESE,111,1.0,1.0,97,0.00,,,0.00,0,Wunderground v.1.15,2013-06-25 07:13:00,
2013-06-25 03:18:00,65.3,64.4,30.14,ESE,111,0.0,2.0,97,0.00,,,0.00,0,Wunderground v.1.15,2013-06-25 07:18:00,
2013-06-25 03:24:00,65.2,64.3,30.14,ESE,111,0.0,0.0,97,0.00,,,0.00,0,Wunderground v.1.15,2013-06-25 07:24:00,
2013-06-25 03:29:00,65.1,64.2,30.14,ESE,111,0.0,0.0,97,0.00,,,0.00,0,Wunderground v.1.15,2013-06-25 07:29:00,
2013-06-25 03:34:00,65.0,64.1,30.14,ESE,111,0.0,0.0,97,0.00,,,0.00,0,Wunderground v.1.15,2013-06-25 07:34:00,
2013-06-25 03:39:00,65.0,64.1,30.14,ESE,111,0.0,0.0,97,0.00,,,0.00,0,Wunderground v.1.15,2013-06-25 07:39:00,
2013-06-25 03:44:00,64.9,64.0,30.14,ESE,111,0.0,0.0,97,0.00,,,0.00,0,Wunderground v.1.15,2013-06-25 07:44:00,
2013-06-25 03:49:00,64.8,63.9,30.14,ESE,111,0.0,0.0,97,0.00,,,0.00,0,Wunderground v.1.15,2013-06-25 07:49:00,
2013-06-25 03:54:00,64.8,63.9,30.14,ESE,111,0.0,0.0,97,0.00,,,0.00,0,Wunderground v.1.15,2013-06-25 07:54:00,
2013-06-25 03:59:00,64.8,63.9,30.14,ESE,111,0.0,0.0,97,0.00,,,0.00,0,Wunderground v.1.15,2013-06-25 07:59:00,
2013-06-25 04:05:00,64.9,64.0,30.14,ESE,111,0.0,0.0,97,0.00,,,0.00,0,Wunderground v.1.15,2013-06-25 08:05:00,
2013-06-25 04:10:00,64.9,64.0,30.14,ESE,111,0.0,0.0,97,0.00,,,0.00,0,Wunderground v.1.15,2013-06-25 08:10:00,
2013-06-25 04:15:00,64.9,64.0,30.14,ESE,111,0.0,0.0,97,0.00,,,0.00,0,Wunderground v.1.15,2013-06-25 08:15:00,
2013-06-25 04:20:00,64.9,64.0,30.14,ESE,111,0.0,0.0,97,0.00,,,0.00,0,Wunderground v.1.15,2013-06-25 08:20:00,
2013-06-25 04:25:00,64.9,64.0,30.13,ESE,111,0.0,0.0,97,0.00,,,0.00,0,Wunderground v.1.15,2013-06-25 08:25:00,
2013-06-25 04:30:00,64.7,63.8,30.14,ESE,111,0.0,0.0,97,0.00,,,0.00,0,Wunderground v.1.15,2013-06-25 08:30:00,
2013-06-25 04:35:00,64.6,63.7,30.14,ESE,111,0.0,0.0,97,0.00,,,0.00,0,Wunderground v.1.15,2013-06-25 08:35:00,
2013-06-25 04:40:00,64.5,63.6,30.14,ESE,111,0.0,0.0,97,0.00,,,0.00,0,Wunderground v.1.15,2013-06-25 08:40:00,
2013-06-25 04:45:00,64.5,63.6,30.14,ESE,111,0.0,0.0,97,0.00,,,0.00,0,Wunderground v.1.15,2013-06-25 08:45:00,
2013-06-25 04:50:00,64.5,63.6,30.14,ESE,111,0.0,0.0,97,0.00,,,0.00,0,Wunderground v.1.15,2013-06-25 08:50:00,
2013-06-25 04:55:00,64.6,64.0,30.14,ESE,111,0.0,0.0,98,0.00,,,0.00,0,Wunderground v.1.15,2013-06-25 08:55:00,
2013-06-25 05:00:00,64.6,64.0,30.13,ESE,111,0.0,0.0,98,0.00,,,0.00,0,Wunderground v.1.15,2013-06-25 09:00:00,
2013-06-25 05:05:00,64.7,64.1,30.13,ESE,111,0.0,0.0,98,0.00,,,0.00,0,Wunderground v.1.15,2013-06-25 09:05:00,
2013-06-25 05:10:00,64.7,64.1,30.13,ESE,111,0.0,0.0,98,0.00,,,0.00,0,Wunderground v.1.15,2013-06-25 09:10:00,
2013-06-25 05:15:00,64.8,64.2,30.13,ESE,111,0.0,0.0,98,0.00,,,0.00,0,Wunderground v.1.15,2013-06-25 09:15:00,
2013-06-25 05:20:00,64.8,64.2,30.13,ESE,118,0.0,4.0,98,0.00,,,0.00,0,Wunderground v.1.15,2013-06-25 09:20:00,
2013-06-25 05:25:00,64.5,63.9,30.12,SE,136,4.0,5.0,98,0.00,,,0.00,0,Wunderground v.1.15,2013-06-25 09:25:00,
2013-06-25 05:30:00,64.7,64.1,30.11,ESE,123,2.0,6.0,98,0.00,,,0.00,0,Wunderground v.1.15,2013-06-25 09:30:00,
2013-06-25 05:35:00,64.8,64.2,30.12,SE,134,0.0,6.0,98,0.00,,,0.00,0,Wunderground v.1.15,2013-06-25 09:35:00,
2013-06-25 05:40:00,64.8,64.2,30.13,NW,317,2.0,3.0,98,0.00,,,0.00,0,Wunderground v.1.15,2013-06-25 09:40:00,
2013-06-25 05:45:00,64.6,64.0,30.14,NNW,347,0.0,4.0,98,0.00,,,0.00,0,Wunderground v.1.15,2013-06-25 09:45:00,
2013-06-25 05:50:00,64.5,63.9,30.13,NNW,347,0.0,1.0,98,0.00,,,0.00,0,Wunderground v.1.15,2013-06-25 09:50:00,
2013-06-25 05:55:00,64.5,63.9,30.14,NNW,347,0.0,1.0,98,0.00,,,0.00,0,Wunderground v.1.15,2013-06-25 09:55:00,
2013-06-25 06:00:00,64.6,64.0,30.15,NNW,347,0.0,0.0,98,0.00,,,0.00,0,Wunderground v.1.15,2013-06-25 10:00:00,
2013-06-25 06:06:00,64.6,64.0,30.15,NNW,347,0.0,1.0,98,0.00,,,0.00,0,Wunderground v.1.15,2013-06-25 10:06:00,
2013-06-25 06:11:00,64.7,64.1,30.15,NNW,347,0.0,0.0,98,0.00,,,0.00,0,Wunderground v.1.15,2013-06-25 10:11:00,
2013-06-25 06:16:00,64.7,64.1,30.15,NNW,347,0.0,0.0,98,0.00,,,0.00,0,Wunderground v.1.15,2013-06-25 10:16:00,
2013-06-25 06:21:00,64.7,64.1,30.15,NNW,347,0.0,0.0,98,0.00,,,0.00,0,Wunderground v.1.15,2013-06-25 10:21:00,
2013-06-25 06:26:00,64.7,64.1,30.15,NNW,347,0.0,0.0,98,0.00,,,0.00,0,Wunderground v.1.15,2013-06-25 10:26:00,
2013-06-25 06:31:00,64.7,64.1,30.15,NNW,347,0.0,0.0,98,0.00,,,0.00,5,Wunderground v.1.15,2013-06-25 10:31:00,
2013-06-25 06:36:00,64.7,64.1,30.15,NNW,347,0.0,0.0,98,0.00,,,0.00,7,Wunderground v.1.15,2013-06-25 10:36:00,
2013-06-25 06:41:00,64.8,64.2,30.16,NNW,347,0.0,0.0,98,0.00,,,0.00,11,Wunderground v.1.15,2013-06-25 10:41:00,
2013-06-25 06:46:00,64.8,64.2,30.16,NNW,347,0.0,1.0,98,0.00,,,0.00,16,Wunderground v.1.15,2013-06-25 10:46:00,
2013-06-25 06:51:00,64.7,64.1,30.16,NNW,347,0.0,0.0,98,0.00,,,0.00,21,Wunderground v.1.15,2013-06-25 10:51:00,
2013-06-25 06:56:00,64.7,64.1,30.16,NNW,347,0.0,0.0,98,0.00,,,0.00,26,Wunderground v.1.15,2013-06-25 10:56:00,
2013-06-25 07:01:00,64.8,64.2,30.16,NNW,348,0.0,0.0,98,0.00,,,0.00,35,Wunderground v.1.15,2013-06-25 11:01:00,
2013-06-25 07:06:00,64.8,64.2,30.16,NNW,348,0.0,0.0,98,0.00,,,0.00,35,Wunderground v.1.15,2013-06-25 11:06:00,
2013-06-25 07:11:00,64.8,64.2,30.17,NNW,348,0.0,0.0,98,0.00,,,0.00,44,Wunderground v.1.15,2013-06-25 11:11:00,
2013-06-25 07:16:00,64.9,64.3,30.17,NNW,348,0.0,0.0,98,0.00,,,0.00,32,Wunderground v.1.15,2013-06-25 11:16:00,
2013-06-25 07:21:00,64.9,64.3,30.17,NNW,348,0.0,0.0,98,0.00,,,0.00,40,Wunderground v.1.15,2013-06-25 11:21:00,
2013-06-25 07:26:00,65.0,64.4,30.17,NNW,348,0.0,0.0,98,0.00,,,0.00,40,Wunderground v.1.15,2013-06-25 11:26:00,
2013-06-25 07:32:00,65.0,64.4,30.17,NNW,348,0.0,0.0,98,0.00,,,0.00,37,Wunderground v.1.15,2013-06-25 11:32:00,
2013-06-25 07:37:00,65.0,64.4,30.17,NNW,348,0.0,0.0,98,0.00,,,0.00,35,Wunderground v.1.15,2013-06-25 11:37:00,
2013-06-25 07:41:00,65.2,64.6,30.16,East,97,0.0,1.0,98,0.00,,,0.00,65,Wunderground v.1.15,2013-06-25 11:41:00,
2013-06-25 07:47:00,65.4,64.8,30.17,East,97,0.0,1.0,98,0.00,,,0.00,49,Wunderground v.1.15,2013-06-25 11:47:00,
2013-06-25 07:52:00,65.6,65.0,30.17,East,97,0.0,0.0,98,0.00,,,0.00,30,Wunderground v.1.15,2013-06-25 11:52:00,
2013-06-25 07:57:00,65.7,65.1,30.17,East,97,0.0,0.0,98,0.00,,,0.00,40,Wunderground v.1.15,2013-06-25 11:57:00,
2013-06-25 08:02:00,65.9,65.3,30.17,East,97,1.0,1.0,98,0.00,,,0.00,54,Wunderground v.1.15,2013-06-25 12:02:00,
2013-06-25 08:07:00,65.9,65.3,30.17,East,97,0.0,2.0,98,0.00,,,0.00,60,Wunderground v.1.15,2013-06-25 12:07:00,
2013-06-25 08:13:00,66.0,65.7,30.17,East,97,0.0,0.0,99,0.00,,,0.00,74,Wunderground v.1.15,2013-06-25 12:13:00,
2013-06-25 08:18:00,66.1,65.8,30.17,East,97,0.0,0.0,99,0.00,,,0.00,111,Wunderground v.1.15,2013-06-25 12:18:00,
2013-06-25 08:23:00,66.3,66.0,30.17,East,97,0.0,0.0,99,0.00,,,0.00,132,Wunderground v.1.15,2013-06-25 12:23:00,
2013-06-25 08:28:00,66.6,66.0,30.17,East,97,0.0,0.0,98,0.00,,,0.00,142,Wunderground v.1.15,2013-06-25 12:28:00,
2013-06-25 08:33:00,66.8,66.5,30.17,East,97,0.0,0.0,99,0.00,,,0.00,163,Wunderground v.1.15,2013-06-25 12:33:00,
2013-06-25 08:38:00,67.1,66.8,30.17,East,97,0.0,1.0,99,0.00,,,0.00,149,Wunderground v.1.15,2013-06-25 12:38:00,
2013-06-25 08:43:00,67.2,66.9,30.17,East,97,0.0,1.0,99,0.00,,,0.00,158,Wunderground v.1.15,2013-06-25 12:43:00,
2013-06-25 08:48:00,67.3,67.0,30.17,East,97,0.0,1.0,99,0.00,,,0.00,260,Wunderground v.1.15,2013-06-25 12:48:00,
2013-06-25 08:53:00,67.2,66.6,30.17,East,96,0.0,1.0,98,0.00,,,0.00,171,Wunderground v.1.15,2013-06-25 12:53:00,
2013-06-25 08:58:00,67.3,67.0,30.18,East,96,0.0,1.0,99,0.00,,,0.00,176,Wunderground v.1.15,2013-06-25 12:58:00,
2013-06-25 09:03:00,67.6,67.3,30.18,East,96,0.0,0.0,99,0.00,,,0.00,151,Wunderground v.1.15,2013-06-25 13:03:00,
2013-06-25 09:08:00,67.7,67.4,30.18,East,96,0.0,1.0,99,0.00,,,0.00,188,Wunderground v.1.15,2013-06-25 13:08:00,
2013-06-25 09:13:00,67.8,67.5,30.18,East,96,0.0,1.0,99,0.00,,,0.00,174,Wunderground v.1.15,2013-06-25 13:13:00,
2013-06-25 09:18:00,68.1,67.8,30.18,East,96,0.0,1.0,99,0.00,,,0.00,135,Wunderground v.1.15,2013-06-25 13:18:00,
2013-06-25 09:23:00,68.5,68.2,30.18,East,96,0.0,0.0,99,0.00,,,0.00,151,Wunderground v.1.15,2013-06-25 13:23:00,
2013-06-25 09:28:00,68.9,68.6,30.17,NNE,31,0.0,3.0,99,0.00,,,0.00,257,Wunderground v.1.15,2013-06-25 13:28:00,
2013-06-25 09:33:00,69.6,69.3,30.17,NNE,32,0.0,1.0,99,0.00,,,0.00,271,Wunderground v.1.15,2013-06-25 13:33:00,
2013-06-25 09:38:00,70.3,70.0,30.17,NNE,24,3.0,5.0,99,0.00,,,0.00,251,Wunderground v.1.15,2013-06-25 13:38:00,
2013-06-25 09:43:00,70.4,70.1,30.17,ENE,63,0.0,3.0,99,0.00,,,0.00,276,Wunderground v.1.15,2013-06-25 13:43:00,
2013-06-25 09:48:00,70.7,70.1,30.17,ENE,77,0.0,5.0,98,0.00,,,0.00,332,Wunderground v.1.15,2013-06-25 13:48:00,
2013-06-25 09:53:00,71.1,70.5,30.17,ENE,78,1.0,1.0,98,0.00,,,0.00,229,Wunderground v.1.15,2013-06-25 13:53:00,
2013-06-25 09:58:00,71.4,70.2,30.18,ENE,78,0.0,3.0,96,0.00,,,0.00,225,Wunderground v.1.15,2013-06-25 13:58:00,
2013-06-25 10:03:00,71.6,70.1,30.18,NNW,347,0.0,3.0,95,0.00,,,0.00,260,Wunderground v.1.15,2013-06-25 14:03:00,
2013-06-25 10:08:00,71.9,69.8,30.18,NNW,348,1.0,4.0,93,0.00,,,0.00,371,Wunderground v.1.15,2013-06-25 14:08:00,
2013-06-25 10:13:00,72.2,69.7,30.18,North,360,0.0,3.0,92,0.00,,,0.00,371,Wunderground v.1.15,2013-06-25 14:13:00,
2013-06-25 10:18:00,72.7,70.2,30.17,NNE,18,2.0,3.0,92,0.00,,,0.00,425,Wunderground v.1.15,2013-06-25 14:18:00,
2013-06-25 10:23:00,73.0,69.9,30.18,NNE,20,1.0,4.0,90,0.00,,,0.00,380,Wunderground v.1.15,2013-06-25 14:23:00,
2013-06-25 10:28:00,73.6,70.8,30.17,NNE,20,3.0,4.0,91,0.00,,,0.00,464,Wunderground v.1.15,2013-06-25 14:28:00,
2013-06-25 10:33:00,73.8,70.0,30.18,WNW,288,2.0,3.0,88,0.00,,,0.00,348,Wunderground v.1.15,2013-06-25 14:33:00,
2013-06-25 10:38:00,73.9,69.8,30.17,WNW,282,2.0,5.0,87,0.00,,,0.00,371,Wunderground v.1.15,2013-06-25 14:38:00,
2013-06-25 10:43:00,74.2,70.1,30.18,North,349,0.0,4.0,87,0.00,,,0.00,452,Wunderground v.1.15,2013-06-25 14:43:00,
2013-06-25 10:48:00,74.4,69.9,30.17,NW,317,0.0,4.0,86,0.00,,,0.00,221,Wunderground v.1.15,2013-06-25 14:48:00,
2013-06-25 10:53:00,74.3,69.8,30.18,NW,312,1.0,3.0,86,0.00,,,0.00,330,Wunderground v.1.15,2013-06-25 14:53:00,
2013-06-25 10:58:00,74.3,69.5,30.17,NW,321,0.0,3.0,85,0.00,,,0.00,406,Wunderground v.1.15,2013-06-25 14:58:00,
2013-06-25 11:03:00,74.6,69.8,30.17,NNW,327,0.0,2.0,85,0.00,,,0.00,432,Wunderground v.1.15,2013-06-25 15:03:00,
2013-06-25 11:08:00,75.0,69.8,30.17,NW,324,1.0,3.0,84,0.00,,,0.00,445,Wunderground v.1.15,2013-06-25 15:08:00,
2013-06-25 11:14:00,75.3,69.8,30.17,North,5,0.0,3.0,83,0.00,,,0.00,392,Wunderground v.1.15,2013-06-25 15:14:00,
2013-06-25 11:19:00,75.6,70.4,30.17,NE,42,0.0,3.0,84,0.00,,,0.00,452,Wunderground v.1.15,2013-06-25 15:19:00,
2013-06-25 11:24:00,75.9,70.4,30.17,NE,39,0.0,3.0,83,0.00,,,0.00,686,Wunderground v.1.15,2013-06-25 15:24:00,
2013-06-25 11:29:00,76.2,70.3,30.17,East,82,0.0,3.0,82,0.00,,,0.00,404,Wunderground v.1.15,2013-06-25 15:29:00,
2013-06-25 11:34:00,76.7,70.8,30.17,NNE,32,0.0,2.0,82,0.00,,,0.00,482,Wunderground v.1.15,2013-06-25 15:34:00,
2013-06-25 11:39:00,77.3,71.0,30.16,NNE,32,0.0,2.0,81,0.00,,,0.00,1078,Wunderground v.1.15,2013-06-25 15:39:00,
2013-06-25 11:44:00,78.0,71.3,30.16,North,10,0.0,2.0,80,0.00,,,0.00,990,Wunderground v.1.15,2013-06-25 15:44:00,
2013-06-25 11:49:00,78.6,70.8,30.16,West,276,3.0,3.0,77,0.00,,,0.00,473,Wunderground v.1.15,2013-06-25 15:49:00,
2013-06-25 11:54:00,78.5,70.3,30.16,WNW,303,0.0,3.0,76,0.00,,,0.00,355,Wunderground v.1.15,2013-06-25 15:54:00,
2013-06-25 11:59:00,78.3,70.1,30.16,West,263,2.0,3.0,76,0.00,,,0.00,290,Wunderground v.1.15,2013-06-25 15:59:00,
2013-06-25 12:04:00,78.0,70.2,30.16,West,263,0.0,4.0,77,0.00,,,0.00,290,Wunderground v.1.15,2013-06-25 16:04:00,
2013-06-25 12:09:00,77.6,70.6,30.16,West,263,0.0,4.0,79,0.00,,,0.00,278,Wunderground v.1.15,2013-06-25 16:09:00,
2013-06-25 12:14:00,77.4,71.1,30.16,West,263,0.0,1.0,81,0.00,,,0.00,353,Wunderground v.1.15,2013-06-25 16:14:00,
2013-06-25 12:19:00,77.3,71.4,30.16,West,263,0.0,1.0,82,0.00,,,0.00,496,Wunderground v.1.15,2013-06-25 16:19:00,
2013-06-25 12:24:00,77.1,70.1,30.15,West,263,0.0,1.0,79,0.00,,,0.00,519,Wunderground v.1.15,2013-06-25 16:24:00,
2013-06-25 12:29:00,77.3,70.6,30.15,West,263,0.0,1.0,80,0.00,,,0.00,482,Wunderground v.1.15,2013-06-25 16:29:00,
2013-06-25 12:34:00,77.7,71.0,30.15,West,263,1.0,1.0,80,0.00,,,0.00,640,Wunderground v.1.15,2013-06-25 16:34:00,
2013-06-25 12:39:00,77.9,71.2,30.15,NW,322,0.0,3.0,80,0.00,,,0.00,592,Wunderground v.1.15,2013-06-25 16:39:00,
2013-06-25 12:44:00,78.2,71.5,30.14,NW,325,0.0,3.0,80,0.00,,,0.00,1165,Wunderground v.1.15,2013-06-25 16:44:00,
2013-06-25 12:49:00,78.4,70.6,30.14,North,360,5.0,5.0,77,0.00,,,0.00,1030,Wunderground v.1.15,2013-06-25 16:49:00,
2013-06-25 12:54:00,78.7,71.3,30.14,NW,310,2.0,4.0,78,0.00,,,0.00,788,Wunderground v.1.15,2013-06-25 16:54:00,
2013-06-25 12:59:00,78.9,69.5,30.14,NW,304,1.0,5.0,73,0.00,,,0.00,438,Wunderground v.1.15,2013-06-25 16:59:00,
2013-06-25 13:04:00,78.8,68.6,30.14,NW,304,0.0,3.0,71,0.00,,,0.00,410,Wunderground v.1.15,2013-06-25 17:04:00,
2013-06-25 13:09:00,78.7,68.9,30.14,NW,304,0.0,3.0,72,0.00,,,0.00,425,Wunderground v.1.15,2013-06-25 17:09:00,
2013-06-25 13:14:00,78.9,70.3,30.14,WNW,300,0.0,1.0,75,0.00,,,0.00,554,Wunderground v.1.15,2013-06-25 17:14:00,
2013-06-25 13:19:00,79.1,70.5,30.14,WNW,300,4.0,5.0,75,0.00,,,0.00,640,Wunderground v.1.15,2013-06-25 17:19:00,
2013-06-25 13:24:00,79.2,71.4,30.14,NW,307,3.0,4.0,77,0.00,,,0.00,1174,Wunderground v.1.15,2013-06-25 17:24:00,
2013-06-25 13:29:00,79.3,70.3,30.14,WNW,284,0.0,4.0,74,0.00,,,0.00,424,Wunderground v.1.15,2013-06-25 17:29:00,
2013-06-25 13:34:00,79.6,71.4,30.14,WNW,284,0.0,5.0,76,0.00,,,0.00,364,Wunderground v.1.15,2013-06-25 17:34:00,
2013-06-25 13:40:00,79.5,70.5,30.13,West,278,4.0,4.0,74,0.00,,,0.00,265,Wunderground v.1.15,2013-06-25 17:40:00,
2013-06-25 13:45:00,79.0,70.8,30.13,NNW,332,4.0,6.0,76,0.00,,,0.00,262,Wunderground v.1.15,2013-06-25 17:45:00,
2013-06-25 13:50:00,78.4,71.0,30.13,SW,215,2.0,2.0,78,0.00,,,0.00,281,Wunderground v.1.15,2013-06-25 17:50:00,
2013-06-25 13:55:00,77.8,70.8,30.13,West,273,3.0,6.0,79,0.00,,,0.00,327,Wunderground v.1.15,2013-06-25 17:55:00,
2013-06-25 14:00:00,76.9,71.0,30.14,WNW,294,0.0,3.0,82,0.00,,,0.00,404,Wunderground v.1.15,2013-06-25 18:00:00,
2013-06-25 14:05:00,76.3,71.1,30.13,SSW,212,3.0,6.0,84,0.00,,,0.00,427,Wunderground v.1.15,2013-06-25 18:05:00,
2013-06-25 14:10:00,76.1,71.3,30.13,SSW,199,2.0,4.0,85,0.00,,,0.00,573,Wunderground v.1.15,2013-06-25 18:10:00,
2013-06-25 14:15:00,76.1,69.8,30.14,West,274,6.0,6.0,81,0.00,,,0.00,329,Wunderground v.1.15,2013-06-25 18:15:00,
2013-06-25 14:20:00,75.7,69.1,30.13,NW,305,8.0,8.0,80,0.00,,,0.00,241,Wunderground v.1.15,2013-06-25 18:20:00,
2013-06-25 14:25:00,75.3,68.7,30.13,NW,307,3.0,8.0,80,0.00,,,0.00,181,Wunderground v.1.15,2013-06-25 18:25:00,
2013-06-25 14:30:00,74.6,68.4,30.13,NW,314,3.0,3.0,81,0.00,,,0.00,197,Wunderground v.1.15,2013-06-25 18:30:00,
2013-06-25 14:35:00,74.4,68.5,30.13,WNW,298,2.0,5.0,82,0.00,,,0.00,264,Wunderground v.1.15,2013-06-25 18:35:00,
2013-06-25 14:40:00,74.1,68.6,30.13,WNW,300,0.0,3.0,83,0.00,,,0.00,236,Wunderground v.1.15,2013-06-25 18:40:00,
2013-06-25 14:45:00,73.8,68.3,30.13,WNW,303,0.0,6.0,83,0.00,,,0.00,167,Wunderground v.1.15,2013-06-25 18:45:00,
2013-06-25 14:50:00,73.8,68.7,30.13,NNW,329,1.0,2.0,84,0.00,,,0.00,162,Wunderground v.1.15,2013-06-25 18:50:00,
2013-06-25 14:55:00,73.8,69.0,30.12,West,275,0.0,3.0,85,0.00,,,0.00,156,Wunderground v.1.15,2013-06-25 18:55:00,
2013-06-25 15:00:00,73.7,68.6,30.12,NW,309,2.0,3.0,84,0.00,,,0.00,149,Wunderground v.1.15,2013-06-25 19:00:00,
2013-06-25 15:05:00,73.5,68.4,30.12,WNW,302,0.0,4.0,84,0.00,,,0.00,162,Wunderground v.1.15,2013-06-25 19:05:00,
2013-06-25 15:10:00,73.3,68.2,30.12,WNW,302,1.0,2.0,84,0.00,,,0.00,186,Wunderground v.1.15,2013-06-25 19:10:00,
2013-06-25 15:15:00,73.3,68.5,30.12,WNW,302,0.0,3.0,85,0.00,,,0.00,200,Wunderground v.1.15,2013-06-25 19:15:00,
2013-06-25 15:20:00,73.3,68.5,30.11,WNW,302,0.0,1.0,85,0.00,,,0.00,220,Wunderground v.1.15,2013-06-25 19:20:00,
2013-06-25 15:25:00,73.4,68.6,30.11,WNW,302,0.0,2.0,85,0.00,,,0.00,250,Wunderground v.1.15,2013-06-25 19:25:00,
2013-06-25 15:30:00,73.5,68.7,30.11,WNW,302,3.0,3.0,85,0.00,,,0.00,271,Wunderground v.1.15,2013-06-25 19:30:00,
2013-06-25 15:35:00,73.6,68.8,30.11,WNW,301,2.0,4.0,85,0.00,,,0.00,309,Wunderground v.1.15,2013-06-25 19:35:00,
2013-06-25 15:40:00,73.8,68.7,30.10,WNW,301,0.0,1.0,84,0.00,,,0.00,483,Wunderground v.1.15,2013-06-25 19:40:00,
2013-06-25 15:45:00,74.3,69.5,30.10,NW,314,1.0,4.0,85,0.00,,,0.00,533,Wunderground v.1.15,2013-06-25 19:45:00,
2013-06-25 15:50:00,74.8,70.0,30.10,WNW,299,0.0,1.0,85,0.00,,,0.00,854,Wunderground v.1.15,2013-06-25 19:50:00,
2013-06-25 15:55:00,75.7,70.5,30.10,South,188,0.0,5.0,84,0.00,,,0.00,965,Wunderground v.1.15,2013-06-25 19:55:00,
2013-06-25 16:00:00,76.8,70.9,30.10,SSW,198,0.0,1.0,82,0.00,,,0.00,896,Wunderground v.1.15,2013-06-25 20:00:00,
2013-06-25 16:05:00,78.2,71.5,30.10,SSW,199,2.0,3.0,80,0.00,,,0.00,865,Wunderground v.1.15,2013-06-25 20:05:00,
2013-06-25 16:10:00,79.1,70.5,30.10,SSW,213,1.0,6.0,75,0.00,,,0.00,858,Wunderground v.1.15,2013-06-25 20:10:00,
2013-06-25 16:15:00,79.8,70.8,30.09,SSW,202,4.0,6.0,74,0.00,,,0.00,795,Wunderground v.1.15,2013-06-25 20:15:00,
2013-06-25 16:21:00,80.3,70.9,30.09,West,270,0.0,2.0,73,0.00,,,0.00,770,Wunderground v.1.15,2013-06-25 20:21:00,
2013-06-25 16:26:00,80.7,70.8,30.09,WNW,285,2.0,4.0,72,0.00,,,0.00,689,Wunderground v.1.15,2013-06-25 20:26:00,
2013-06-25 16:31:00,80.7,70.8,30.08,WNW,303,1.0,6.0,72,0.00,,,0.00,777,Wunderground v.1.15,2013-06-25 20:31:00,
2013-06-25 16:36:00,80.7,70.8,30.08,NNW,331,0.0,6.0,72,0.00,,,0.00,659,Wunderground v.1.15,2013-06-25 20:36:00,
2013-06-25 16:41:00,81.1,70.8,30.08,NE,39,0.0,2.0,71,0.00,,,0.00,731,Wunderground v.1.15,2013-06-25 20:41:00,
2013-06-25 16:46:00,81.7,70.5,30.08,SW,232,0.0,4.0,69,0.00,,,0.00,714,Wunderground v.1.15,2013-06-25 20:46:00,
2013-06-25 16:51:00,81.9,70.3,30.09,NW,317,2.0,5.0,68,0.00,,,0.00,668,Wunderground v.1.15,2013-06-25 20:51:00,
2013-06-25 16:56:00,82.0,70.4,30.08,NW,309,0.0,5.0,68,0.00,,,0.00,696,Wunderground v.1.15,2013-06-25 20:56:00,
2013-06-25 17:01:00,82.2,70.1,30.08,NW,320,2.0,3.0,67,0.00,,,0.00,715,Wunderground v.1.15,2013-06-25 21:01:00,
2013-06-25 17:06:00,81.9,69.9,30.08,NNW,348,0.0,3.0,67,0.00,,,0.00,246,Wunderground v.1.15,2013-06-25 21:06:00,
2013-06-25 17:11:00,81.8,69.8,30.08,NNE,31,0.0,1.0,67,0.00,,,0.00,367,Wunderground v.1.15,2013-06-25 21:11:00,
2013-06-25 17:16:00,81.8,70.2,30.07,NNE,31,0.0,2.0,68,0.00,,,0.00,197,Wunderground v.1.15,2013-06-25 21:16:00,
2013-06-25 17:21:00,81.5,69.9,30.07,NNE,31,0.0,1.0,68,0.00,,,0.00,251,Wunderground v.1.15,2013-06-25 21:21:00,
2013-06-25 17:26:00,81.4,71.1,30.06,NW,321,0.0,2.0,71,0.00,,,0.00,345,Wunderground v.1.15,2013-06-25 21:26:00,
2013-06-25 17:33:00,81.8,71.1,30.06,North,355,0.0,0.0,70,0.00,,,0.00,584,Wunderground v.1.15,2013-06-25 21:33:00,
2013-06-25 17:38:00,82.1,70.1,30.06,NW,315,0.0,1.0,67,0.00,,,0.00,598,Wunderground v.1.15,2013-06-25 21:38:00,
2013-06-25 17:43:00,82.7,72.3,30.06,NW,315,0.0,0.0,71,0.00,,,0.00,448,Wunderground v.1.15,2013-06-25 21:43:00,
2013-06-25 17:48:00,83.0,70.9,30.06,NW,315,1.0,1.0,67,0.00,,,0.00,185,Wunderground v.1.15,2013-06-25 21:48:00,
2013-06-25 17:53:00,83.0,71.8,30.06,NW,315,0.0,1.0,69,0.00,,,0.00,243,Wunderground v.1.15,2013-06-25 21:53:00,
2013-06-25 17:58:00,83.0,71.8,30.06,SW,219,0.0,1.0,69,0.00,,,0.00,279,Wunderground v.1.15,2013-06-25 21:58:00,
2013-06-25 18:03:00,83.0,71.3,30.06,WSW,242,0.0,1.0,68,0.00,,,0.00,499,Wunderground v.1.15,2013-06-25 22:03:00,
2013-06-25 18:08:00,83.0,71.3,30.06,NW,306,1.0,4.0,68,0.00,,,0.00,540,Wunderground v.1.15,2013-06-25 22:08:00,
2013-06-25 18:13:00,83.0,72.2,30.06,West,270,0.0,3.0,70,0.00,,,0.00,237,Wunderground v.1.15,2013-06-25 22:13:00,
2013-06-25 18:18:00,82.5,71.3,30.06,SSW,201,0.0,5.0,69,0.00,,,0.00,197,Wunderground v.1.15,2013-06-25 22:18:00,
2013-06-25 18:23:00,82.0,71.2,30.06,SW,229,0.0,2.0,70,0.00,,,0.00,188,Wunderground v.1.15,2013-06-25 22:23:00,
2013-06-25 18:28:00,81.6,71.3,30.06,SW,225,0.0,4.0,71,0.00,,,0.00,211,Wunderground v.1.15,2013-06-25 22:28:00,
2013-06-25 18:33:00,81.3,71.8,30.06,SW,225,0.0,1.0,73,0.00,,,0.00,185,Wunderground v.1.15,2013-06-25 22:33:00,
2013-06-25 18:39:00,81.0,71.5,30.06,NW,311,0.0,4.0,73,0.00,,,0.00,241,Wunderground v.1.15,2013-06-25 22:39:00,
2013-06-25 18:44:00,80.7,71.2,30.06,WNW,295,0.0,3.0,73,0.00,,,0.00,142,Wunderground v.1.15,2013-06-25 22:44:00,
2013-06-25 18:49:00,80.5,71.4,30.07,NW,318,0.0,3.0,74,0.00,,,0.00,123,Wunderground v.1.15,2013-06-25 22:49:00,
2013-06-25 18:54:00,80.3,71.6,30.07,NW,305,0.0,1.0,75,0.00,,,0.00,72,Wunderground v.1.15,2013-06-25 22:54:00,
2013-06-25 18:59:00,79.9,71.3,30.07,SW,235,0.0,3.0,75,0.00,,,0.00,49,Wunderground v.1.15,2013-06-25 22:59:00,
2013-06-25 19:04:00,79.6,71.4,30.06,SW,235,0.0,0.0,76,0.00,,,0.00,51,Wunderground v.1.15,2013-06-25 23:04:00,
2013-06-25 19:09:00,79.4,71.6,30.06,SW,235,0.0,0.0,77,0.00,,,0.00,49,Wunderground v.1.15,2013-06-25 23:09:00,
2013-06-25 19:14:00,79.1,71.3,30.06,SW,235,0.0,0.0,77,0.00,,,0.00,49,Wunderground v.1.15,2013-06-25 23:14:00,
2013-06-25 19:19:00,78.9,71.5,30.06,SW,235,0.0,0.0,78,0.00,,,0.00,47,Wunderground v.1.15,2013-06-25 23:19:00,
2013-06-25 19:24:00,78.4,71.3,30.06,SW,235,0.0,0.0,79,0.00,,,0.00,44,Wunderground v.1.15,2013-06-25 23:24:00,
2013-06-25 19:29:00,78.2,71.9,30.06,SW,235,0.0,0.0,81,0.00,,,0.00,44,Wunderground v.1.15,2013-06-25 23:29:00,
2013-06-25 19:34:00,78.0,72.1,30.06,SW,235,0.0,0.0,82,0.00,,,0.00,42,Wunderground v.1.15,2013-06-25 23:34:00,
2013-06-25 19:39:00,77.8,72.2,30.05,SW,235,0.0,0.0,83,0.00,,,0.00,37,Wunderground v.1.15,2013-06-25 23:39:00,
2013-06-25 19:44:00,77.5,71.9,30.06,SW,235,0.0,0.0,83,0.00,,,0.00,35,Wunderground v.1.15,2013-06-25 23:44:00,
2013-06-25 19:49:00,77.2,72.0,30.05,SW,228,0.0,0.0,84,0.00,,,0.00,37,Wunderground v.1.15,2013-06-25 23:49:00,
2013-06-25 19:54:00,77.0,72.1,30.05,SW,228,0.0,0.0,85,0.00,,,0.00,54,Wunderground v.1.15,2013-06-25 23:54:00,
2013-06-25 19:59:00,76.7,71.5,30.05,SW,228,0.0,0.0,84,0.00,,,0.00,62,Wunderground v.1.15,2013-06-25 23:59:00,
2013-06-25 20:04:00,76.6,71.4,30.05,SW,228,0.0,0.0,84,0.00,,,0.00,72,Wunderground v.1.15,2013-06-26 00:04:00,
2013-06-25 20:09:00,76.5,71.7,30.05,SW,228,0.0,0.0,85,0.00,,,0.00,63,Wunderground v.1.15,2013-06-26 00:09:00,
2013-06-25 20:14:00,76.5,71.7,30.05,SW,228,0.0,0.0,85,0.00,,,0.00,51,Wunderground v.1.15,2013-06-26 00:14:00,
2013-06-25 20:19:00,76.5,72.0,30.05,SW,236,0.0,1.0,86,0.00,,,0.00,42,Wunderground v.1.15,2013-06-26 00:19:00,
2013-06-25 20:24:00,76.4,71.9,30.05,SSE,148,0.0,0.0,86,0.00,,,0.00,35,Wunderground v.1.15,2013-06-26 00:24:00,
2013-06-25 20:29:00,76.2,71.7,30.05,SSE,148,0.0,0.0,86,0.00,,,0.00,30,Wunderground v.1.15,2013-06-26 00:29:00,
2013-06-25 20:34:00,76.0,71.5,30.05,SSE,148,0.0,0.0,86,0.00,,,0.00,25,Wunderground v.1.15,2013-06-26 00:34:00,
2013-06-25 20:39:00,75.8,71.3,30.05,SSE,148,0.0,0.0,86,0.00,,,0.00,19,Wunderground v.1.15,2013-06-26 00:39:00,
2013-06-25 20:44:00,75.6,71.1,30.05,SSE,148,0.0,0.0,86,0.00,,,0.00,14,Wunderground v.1.15,2013-06-26 00:44:00,
2013-06-25 20:49:00,75.3,70.8,30.06,SSE,148,0.0,0.0,86,0.00,,,0.00,12,Wunderground v.1.15,2013-06-26 00:49:00,
2013-06-25 20:54:00,75.0,70.9,30.06,SSE,148,0.0,1.0,87,0.00,,,0.00,5,Wunderground v.1.15,2013-06-26 00:54:00,
2013-06-25 20:59:00,74.7,70.9,30.06,SSE,148,0.0,1.0,88,0.00,,,0.00,0,Wunderground v.1.15,2013-06-26 00:59:00,
2013-06-25 21:04:00,74.5,70.7,30.06,SSE,148,0.0,0.0,88,0.00,,,0.00,0,Wunderground v.1.15,2013-06-26 01:04:00,
2013-06-25 21:09:00,74.2,70.4,30.06,SSE,148,0.0,0.0,88,0.00,,,0.00,0,Wunderground v.1.15,2013-06-26 01:09:00,
2013-06-25 21:14:00,73.9,70.5,30.07,SSE,148,0.0,0.0,89,0.00,,,0.00,0,Wunderground v.1.15,2013-06-26 01:14:00,
2013-06-25 21:19:00,73.6,70.2,30.06,SSE,148,0.0,0.0,89,0.00,,,0.00,0,Wunderground v.1.15,2013-06-26 01:19:00,
2013-06-25 21:24:00,73.4,70.3,30.06,SSE,148,0.0,0.0,90,0.00,,,0.00,0,Wunderground v.1.15,2013-06-26 01:24:00,
2013-06-25 21:29:00,73.1,69.7,30.06,SSE,148,0.0,0.0,89,0.00,,,0.00,0,Wunderground v.1.15,2013-06-26 01:29:00,
2013-06-25 21:34:00,72.9,69.8,30.06,SSE,148,0.0,0.0,90,0.00,,,0.00,0,Wunderground v.1.15,2013-06-26 01:34:00,
2013-06-25 21:39:00,72.6,69.5,30.07,SSE,148,0.0,0.0,90,0.00,,,0.00,0,Wunderground v.1.15,2013-06-26 01:39:00,
2013-06-25 21:44:00,72.4,69.3,30.06,SSE,148,0.0,0.0,90,0.00,,,0.00,0,Wunderground v.1.15,2013-06-26 01:44:00,
2013-06-25 21:49:00,72.1,69.0,30.07,SSE,148,0.0,0.0,90,0.00,,,0.00,0,Wunderground v.1.15,2013-06-26 01:49:00,
2013-06-25 21:54:00,71.9,68.8,30.06,SSE,148,0.0,0.0,90,0.00,,,0.00,0,Wunderground v.1.15,2013-06-26 01:54:00,
2013-06-25 21:59:00,71.7,68.6,30.07,SSE,148,0.0,0.0,90,0.00,,,0.00,0,Wunderground v.1.15,2013-06-26 01:59:00,
2013-06-25 22:04:00,71.5,68.7,30.07,SSE,148,0.0,0.0,91,0.00,,,0.00,0,Wunderground v.1.15,2013-06-26 02:04:00,
2013-06-25 22:09:00,71.3,68.9,30.07,SSE,148,0.0,0.0,92,0.00,,,0.00,0,Wunderground v.1.15,2013-06-26 02:09:00,
2013-06-25 22:14:00,71.1,68.7,30.07,SSE,148,0.0,0.0,92,0.00,,,0.00,0,Wunderground v.1.15,2013-06-26 02:14:00,
2013-06-25 22:19:00,70.9,68.5,30.07,SSE,148,0.0,0.0,92,0.00,,,0.00,0,Wunderground v.1.15,2013-06-26 02:19:00,
2013-06-25 22:24:00,70.7,68.6,30.07,SSE,148,0.0,0.0,93,0.00,,,0.00,0,Wunderground v.1.15,2013-06-26 02:24:00,
2013-06-25 22:29:00,70.6,68.5,30.07,SSE,148,0.0,0.0,93,0.00,,,0.00,0,Wunderground v.1.15,2013-06-26 02:29:00,
2013-06-25 22:35:00,70.4,68.3,30.07,SSE,148,0.0,0.0,93,0.00,,,0.00,0,Wunderground v.1.15,2013-06-26 02:35:00,
2013-06-25 22:40:00,70.3,68.2,30.07,SSE,148,0.0,0.0,93,0.00,,,0.00,0,Wunderground v.1.15,2013-06-26 02:40:00,
2013-06-25 22:45:00,70.2,68.4,30.07,SSE,148,0.0,1.0,94,0.00,,,0.00,0,Wunderground v.1.15,2013-06-26 02:45:00,
2013-06-25 22:50:00,70.1,68.3,30.07,SSE,148,0.0,1.0,94,0.00,,,0.00,0,Wunderground v.1.15,2013-06-26 02:50:00,
2013-06-25 22:54:00,70.0,68.2,30.07,SSE,148,0.0,0.0,94,0.00,,,0.00,0,Wunderground v.1.15,2013-06-26 02:54:00,
2013-06-25 22:59:00,69.9,68.1,30.07,SSE,148,0.0,0.0,94,0.00,,,0.00,0,Wunderground v.1.15,2013-06-26 02:59:00,
2013-06-25 23:04:00,69.7,67.9,30.07,SSE,148,0.0,0.0,94,0.00,,,0.00,0,Wunderground v.1.15,2013-06-26 03:04:00,
2013-06-25 23:10:00,69.5,67.7,30.07,SSE,148,0.0,0.0,94,0.00,,,0.00,0,Wunderground v.1.15,2013-06-26 03:10:00,
2013-06-25 23:14:00,69.3,67.5,30.07,SSE,148,0.0,0.0,94,0.00,,,0.00,0,Wunderground v.1.15,2013-06-26 03:14:00,
2013-06-25 23:19:00,69.2,67.4,30.08,SSE,148,0.0,0.0,94,0.00,,,0.00,0,Wunderground v.1.15,2013-06-26 03:19:00,
2013-06-25 23:24:00,69.0,67.2,30.07,SSE,148,0.0,0.0,94,0.00,,,0.00,0,Wunderground v.1.15,2013-06-26 03:24:00,
2013-06-25 23:30:00,69.0,67.2,30.07,SSE,148,0.0,0.0,94,0.00,,,0.00,0,Wunderground v.1.15,2013-06-26 03:30:00,
2013-06-25 23:35:00,68.9,67.4,30.07,SSE,148,0.0,0.0,95,0.00,,,0.00,0,Wunderground v.1.15,2013-06-26 03:35:00,
2013-06-25 23:40:00,68.8,67.3,30.08,SSE,148,0.0,0.0,95,0.00,,,0.00,0,Wunderground v.1.15,2013-06-26 03:40:00,
2013-06-25 23:45:00,68.8,67.3,30.07,SSE,148,0.0,0.0,95,0.00,,,0.00,0,Wunderground v.1.15,2013-06-26 03:45:00,
2013-06-25 23:50:00,68.7,67.2,30.08,SSE,148,0.0,0.0,95,0.00,,,0.00,0,Wunderground v.1.15,2013-06-26 03:50:00,
2013-06-25 23:55:00,68.7,67.2,30.08,SSE,148,0.0,0.0,95,0.00,,,0.00,0,Wunderground v.1.15,2013-06-26 03:55:00,